This is the latest recevied weather packets stored in our database for station/object HK4K-15. If no packets are shown the sender has not sent any weather packets the latest 10 day(s).
| Time | Temp. | Humidity | Pressure | Rain* | Wind** | Luminosity | Snow |
|---|---|---|---|---|---|---|---|
| 1787978672 | 15.56° C | 83% | 1016 hPa | 3.3 mm | - | - | - |
| 1787977652 | 15.56° C | 81% | 1016 hPa | 5.08 mm | - | - | - |
| 1787976631 | 15.56° C | 78% | 1016 hPa | 2.79 mm | - | - | - |
| 1787975610 | 15.56° C | 75% | 1016 hPa | 0 mm | - | - | - |
| 1787974590 | 15.56° C | 72% | 1016 hPa | 0 mm | - | - | - |
| 1787973569 | 15.56° C | 68% | 1015 hPa | 0 mm | - | - | - |
| 1787972549 | 15.56° C | 64% | 1015 hPa | 0 mm | - | - | - |
| 1787971529 | 15.56° C | 60% | 1015 hPa | 0 mm | - | - | - |
| 1787970508 | 15.56° C | 56% | 1015 hPa | 0 mm | - | - | - |
| 1787969488 | 15.56° C | 51% | 1015 hPa | 0 mm | - | - | - |
| 1787968467 | 16.11° C | 47% | 1014 hPa | 0 mm | - | - | - |
| 1787967447 | 16.67° C | 47% | 1014 hPa | 0 mm | - | - | - |
| 1787966426 | 17.22° C | 47% | 1013 hPa | 0 mm | - | - | - |
| 1787965406 | 18.33° C | 47% | 1013 hPa | 0 mm | - | - | - |
| 1787964385 | 19.44° C | 47% | 1013 hPa | 0 mm | - | - | - |
| 1787963365 | 20° C | 47% | 1012 hPa | 0 mm | - | - | - |
| 1787961324 | 21.67° C | 47% | 1012 hPa | 0 mm | - | - | - |
| 1787960304 | 22.22° C | 47% | 1012 hPa | 0 mm | - | - | - |
| 1787956222 | 25° C | 48% | 1009 hPa | 0 mm | - | - | - |
| 1787954181 | 25.56° C | 45% | 1007 hPa | 0 mm | - | - | - |
| 1787953161 | 26.11° C | 43% | 1007 hPa | 0 mm | - | - | - |
| 1787952140 | 26.67° C | 42% | 1007 hPa | 0 mm | - | - | - |
| 1787951120 | 26.67° C | 42% | 1007 hPa | 0 mm | - | - | - |
| 1787949079 | 27.78° C | 42% | 1007 hPa | 0 mm | - | - | - |
| 1787948058 | 28.33° C | 41% | 1007 hPa | 0 mm | - | - | - |
* Rain latest hour (hover to see other rain measurements)
** Current wind speed in m/s (hover to see current wind gust speed)